createdAt,value
2022-09-22T00:01:40.012Z,86.50
2022-09-22T00:04:25.562Z,86.50
2022-09-22T00:07:11.108Z,86.30
2022-09-22T00:09:56.436Z,86.30
2022-09-22T00:12:41.926Z,86.20
2022-09-22T00:15:27.527Z,86.40
2022-09-22T00:18:12.855Z,86.20
2022-09-22T00:20:59.388Z,86.20
2022-09-22T00:23:46.638Z,85.80
2022-09-22T00:26:32.007Z,86.20
2022-09-22T00:29:18.099Z,86.50
2022-09-22T00:32:07.368Z,86.40
2022-09-22T00:34:52.772Z,86.20
2022-09-22T00:37:38.255Z,86.50
2022-09-22T00:40:24.075Z,86.60
2022-09-22T00:43:14.211Z,86.70
2022-09-22T00:46:27.273Z,86.80
2022-09-22T00:49:15.188Z,86.90
2022-09-22T00:52:01.455Z,86.90
2022-09-22T00:54:47.514Z,86.70
2022-09-22T00:57:36.861Z,86.80
2022-09-22T01:00:22.505Z,86.90
2022-09-22T01:03:12.013Z,86.90
2022-09-22T01:06:02.798Z,86.90
2022-09-22T01:08:48.267Z,87.00
2022-09-22T01:11:34.264Z,86.70
2022-09-22T01:14:32.195Z,87.10
2022-09-22T01:17:27.280Z,87.20
2022-09-22T01:20:56.185Z,87.00
2022-09-22T01:23:49.007Z,87.30
2022-09-22T01:26:55.556Z,87.10
2022-09-22T01:29:46.816Z,87.10
2022-09-22T01:32:53.732Z,87.10
2022-09-22T01:35:56.320Z,87.30
2022-09-22T01:39:19.155Z,87.50
2022-09-22T01:42:11.457Z,87.30
2022-09-22T01:45:04.684Z,87.40
2022-09-22T01:48:06.581Z,87.70
2022-09-22T01:51:05.877Z,87.70
2022-09-22T01:53:56.737Z,87.50
2022-09-22T01:56:45.860Z,87.70
2022-09-22T01:59:34.340Z,87.90
2022-09-22T02:02:26.712Z,87.90
2022-09-22T02:05:21.160Z,87.80
2022-09-22T02:08:15.059Z,88.10
2022-09-22T02:11:09.824Z,88.40
2022-09-22T02:13:55.420Z,88.30
2022-09-22T02:16:41.299Z,88.50
2022-09-22T02:19:37.690Z,88.60
2022-09-22T02:22:23.179Z,88.70
2022-09-22T02:25:10.611Z,88.80
2022-09-22T02:27:57.108Z,89.20
2022-09-22T02:31:10.573Z,89.00
2022-09-22T02:33:53.433Z,89.30
2022-09-22T02:36:41.872Z,89.40
2022-09-22T02:39:47.467Z,89.40
2022-09-22T02:42:35.234Z,89.40
2022-09-22T02:45:23.827Z,89.60
2022-09-22T02:48:51.425Z,89.80
2022-09-22T02:51:37.376Z,90.20
2022-09-22T02:54:23.204Z,89.90
2022-09-22T02:57:09.680Z,89.70
2022-09-22T02:59:55.119Z,89.90
2022-09-22T03:02:40.927Z,90.00
2022-09-22T03:05:26.346Z,90.00
2022-09-22T03:08:12.138Z,90.10
2022-09-22T03:10:57.674Z,90.10
2022-09-22T03:13:42.958Z,90.10
2022-09-22T03:16:28.507Z,90.50
2022-09-22T03:19:14.007Z,90.10
2022-09-22T03:21:59.720Z,90.20
2022-09-22T03:24:44.943Z,90.20
2022-09-22T03:27:30.479Z,90.20
2022-09-22T03:30:15.904Z,90.20
2022-09-22T03:33:01.623Z,90.30
2022-09-22T03:35:47.227Z,90.40
2022-09-22T03:38:33.003Z,90.50
2022-09-22T03:41:19.645Z,90.50
2022-09-22T03:44:05.985Z,90.50
2022-09-22T03:46:51.553Z,90.70
2022-09-22T03:49:36.610Z,90.60
2022-09-22T03:52:22.251Z,91.00
2022-09-22T03:55:08.280Z,90.70
2022-09-22T03:57:53.975Z,90.70
2022-09-22T04:00:39.426Z,90.80
2022-09-22T04:03:24.809Z,90.80
2022-09-22T04:06:10.612Z,90.90
2022-09-22T04:08:56.308Z,90.80
2022-09-22T04:11:41.969Z,91.20
2022-09-22T04:14:27.347Z,90.90
2022-09-22T04:17:13.400Z,90.90
2022-09-22T04:19:59.501Z,91.00
2022-09-22T04:22:45.217Z,91.00
2022-09-22T04:25:32.118Z,91.00
2022-09-22T04:28:17.434Z,91.00
2022-09-22T04:31:03.449Z,91.00
2022-09-22T04:33:48.792Z,91.10
2022-09-22T04:36:34.474Z,91.10
2022-09-22T04:39:23.664Z,91.10
2022-09-22T04:42:09.262Z,91.10
2022-09-22T04:44:57.388Z,91.20
2022-09-22T04:47:49.590Z,91.30
2022-09-22T04:50:34.931Z,91.30
2022-09-22T04:53:24.263Z,91.40
2022-09-22T04:56:09.864Z,91.70
2022-09-22T04:58:55.184Z,91.40
2022-09-22T05:01:40.770Z,91.40
2022-09-22T05:04:26.330Z,91.60
2022-09-22T05:07:11.605Z,91.40
2022-09-22T05:09:57.169Z,91.60
2022-09-22T05:12:43.868Z,91.60
2022-09-22T05:15:32.548Z,91.40
2022-09-22T05:18:18.234Z,91.40
2022-09-22T05:21:03.548Z,91.50
2022-09-22T05:23:49.271Z,91.60
2022-09-22T05:26:34.608Z,91.60
2022-09-22T05:29:22.540Z,91.60
2022-09-22T05:32:10.110Z,91.60
2022-09-22T05:34:55.467Z,91.70
2022-09-22T05:37:45.077Z,91.70
2022-09-22T05:40:31.112Z,91.80
2022-09-22T05:43:16.564Z,91.80
2022-09-22T05:46:02.154Z,91.90
2022-09-22T05:48:47.495Z,92.00
2022-09-22T05:51:33.092Z,92.00
2022-09-22T05:54:23.122Z,92.00
2022-09-22T05:57:08.794Z,92.20
2022-09-22T05:59:55.176Z,92.20
2022-09-22T06:02:44.047Z,92.20
2022-09-22T06:05:29.392Z,92.30
2022-09-22T06:08:14.883Z,92.30
2022-09-22T06:11:00.590Z,92.30
2022-09-22T06:13:46.052Z,92.40
2022-09-22T06:16:31.797Z,92.30
2022-09-22T06:19:26.751Z,92.40
2022-09-22T06:22:12.180Z,92.50
2022-09-22T06:24:57.331Z,92.80
2022-09-22T06:27:44.247Z,92.60
2022-09-22T06:30:30.920Z,92.60
2022-09-22T06:33:16.532Z,92.60
2022-09-22T06:36:02.418Z,92.70
2022-09-22T06:38:50.691Z,92.70
2022-09-22T06:41:35.832Z,92.80
2022-09-22T06:44:21.908Z,92.70
2022-09-22T06:47:08.986Z,92.90
2022-09-22T06:49:54.403Z,92.90
2022-09-22T06:52:41.404Z,93.00
2022-09-22T06:55:28.149Z,92.90
2022-09-22T06:58:15.212Z,93.00
2022-09-22T07:01:09.712Z,92.90
2022-09-22T07:03:55.656Z,93.10
2022-09-22T07:06:42.643Z,93.00
2022-09-22T07:09:27.938Z,93.00
2022-09-22T07:12:16.023Z,93.40
2022-09-22T07:15:01.835Z,93.10
2022-09-22T07:17:52.550Z,93.10
2022-09-22T07:20:37.684Z,93.10
2022-09-22T07:23:27.524Z,93.20
2022-09-22T07:26:21.844Z,93.20
2022-09-22T07:29:11.695Z,93.10
2022-09-22T07:31:59.073Z,93.20
2022-09-22T07:34:45.073Z,93.20
2022-09-22T07:37:33.488Z,93.10
2022-09-22T07:40:19.159Z,93.00
2022-09-22T07:43:04.264Z,93.00
2022-09-22T07:45:59.599Z,93.10
2022-09-22T07:48:48.302Z,93.10
2022-09-22T07:51:34.008Z,92.90
2022-09-22T07:54:19.421Z,92.90
2022-09-22T07:57:10.891Z,92.70
2022-09-22T07:59:57.512Z,92.80
2022-09-22T08:02:50.519Z,92.90
2022-09-22T08:05:36.095Z,92.80
2022-09-22T08:08:21.296Z,92.60
2022-09-22T08:11:09.259Z,92.60
2022-09-22T08:14:00.171Z,92.80
2022-09-22T08:16:48.911Z,92.60
2022-09-22T08:19:37.461Z,92.70
2022-09-22T08:22:23.224Z,92.80
2022-09-22T08:25:12.423Z,92.70
2022-09-22T08:28:00.213Z,92.90
2022-09-22T08:30:46.908Z,92.70
2022-09-22T08:33:32.602Z,92.60
2022-09-22T08:36:20.047Z,92.50
2022-09-22T08:39:09.148Z,92.80
2022-09-22T08:42:22.000Z,92.70
2022-09-22T08:45:24.819Z,92.60
2022-09-22T08:48:44.200Z,92.40
2022-09-22T08:51:55.056Z,92.40
2022-09-22T08:54:40.255Z,92.20
2022-09-22T08:57:39.121Z,91.30
2022-09-22T09:00:25.587Z,91.40
2022-09-22T09:03:46.884Z,91.30
2022-09-22T09:06:45.596Z,91.20
2022-09-22T09:09:50.199Z,91.00
2022-09-22T09:12:44.127Z,90.80
2022-09-22T09:15:53.308Z,90.50
2022-09-22T09:18:44.826Z,89.80
2022-09-22T09:21:34.984Z,89.90
2022-09-22T09:27:54.905Z,88.90
2022-09-22T09:30:45.493Z,87.70
2022-09-22T09:33:56.827Z,87.20
2022-09-22T09:36:45.649Z,86.50
2022-09-22T09:39:33.582Z,86.00
2022-09-22T09:42:33.163Z,85.40
2022-09-22T09:45:24.241Z,84.90
2022-09-22T09:48:30.029Z,83.20
2022-09-22T09:51:15.890Z,80.80
2022-09-22T09:54:05.557Z,78.60
2022-09-22T09:57:05.012Z,79.10
2022-09-22T10:00:32.415Z,79.00
2022-09-22T10:03:28.721Z,78.30
2022-09-22T10:06:23.109Z,77.20
2022-09-22T10:09:08.915Z,76.80
2022-09-22T10:12:01.914Z,73.20
2022-09-22T10:14:56.970Z,73.80
2022-09-22T10:17:45.074Z,72.20
2022-09-22T10:20:34.408Z,70.00
2022-09-22T10:23:22.076Z,68.30
2022-09-22T10:26:37.115Z,68.60
2022-09-22T10:29:23.076Z,64.20
2022-09-22T10:32:15.519Z,63.60
2022-09-22T10:35:01.043Z,64.60
2022-09-22T10:37:47.552Z,64.20
2022-09-22T10:40:32.789Z,62.30
2022-09-22T10:43:46.436Z,62.60
2022-09-22T10:46:37.494Z,62.50
2022-09-22T10:49:23.803Z,62.60
2022-09-22T10:52:35.398Z,59.70
2022-09-22T10:55:32.430Z,58.90
2022-09-22T10:58:27.345Z,59.50
2022-09-22T11:01:34.428Z,59.60
2022-09-22T11:04:47.905Z,56.70
2022-09-22T11:08:16.003Z,56.00
2022-09-22T11:11:29.195Z,55.70
2022-09-22T11:14:30.306Z,55.70
2022-09-22T11:17:56.266Z,52.90
2022-09-22T11:20:44.856Z,51.50
2022-09-22T11:23:57.011Z,51.60
2022-09-22T11:26:57.108Z,49.50
2022-09-22T11:30:11.374Z,49.50
2022-09-22T11:33:25.957Z,47.30
2022-09-22T11:36:40.571Z,43.10
2022-09-22T11:39:54.515Z,42.00
2022-09-22T11:42:52.315Z,39.40
2022-09-22T11:46:01.410Z,38.10
2022-09-22T11:49:01.911Z,35.80
2022-09-22T11:52:10.152Z,35.70
2022-09-22T11:55:00.442Z,34.50
2022-09-22T11:57:53.911Z,32.90
2022-09-22T12:00:50.211Z,32.90
2022-09-22T12:04:12.936Z,33.10
2022-09-22T12:07:00.271Z,32.30
2022-09-22T12:09:59.043Z,29.80
2022-09-22T12:12:48.599Z,29.20
2022-09-22T12:16:07.049Z,29.50
2022-09-22T12:19:25.306Z,28.90
2022-09-22T12:22:32.594Z,28.80
2022-09-22T12:25:50.691Z,28.50
2022-09-22T12:28:45.469Z,26.90
2022-09-22T12:31:42.664Z,26.40
2022-09-22T12:34:44.111Z,26.10
2022-09-22T12:37:32.541Z,25.40
2022-09-22T12:40:25.023Z,24.50
2022-09-22T12:43:21.202Z,25.00
2022-09-22T12:46:30.227Z,25.40
2022-09-22T12:49:21.343Z,24.60
2022-09-22T12:52:42.419Z,24.40
2022-09-22T12:55:30.529Z,24.30
2022-09-22T12:58:18.749Z,24.90
2022-09-22T13:01:30.077Z,24.90
2022-09-22T13:04:18.088Z,25.10
2022-09-22T13:07:03.916Z,25.00
2022-09-22T13:09:49.127Z,25.60
2022-09-22T13:12:34.783Z,25.30
2022-09-22T13:15:20.200Z,25.10
2022-09-22T13:18:33.607Z,24.80
2022-09-22T13:21:30.804Z,24.40
2022-09-22T13:24:26.454Z,24.10
2022-09-22T13:27:14.227Z,23.30
2022-09-22T13:29:59.692Z,22.80
2022-09-22T13:32:50.532Z,23.80
2022-09-22T13:35:41.874Z,23.80
2022-09-22T13:38:28.378Z,23.90
2022-09-22T13:41:21.376Z,24.10
2022-09-22T13:44:11.909Z,24.40
2022-09-22T13:47:00.763Z,24.70
2022-09-22T13:50:01.159Z,24.80
2022-09-22T13:52:48.716Z,24.00
2022-09-22T13:55:35.952Z,22.70
2022-09-22T13:58:41.763Z,22.90
2022-09-22T14:01:28.740Z,22.80
2022-09-22T14:04:34.250Z,21.90
2022-09-22T14:07:21.901Z,22.20
2022-09-22T14:10:09.179Z,23.80
2022-09-22T14:12:57.800Z,23.30
2022-09-22T14:15:43.957Z,22.60
2022-09-22T14:18:30.298Z,22.80
2022-09-22T14:21:36.696Z,22.20
2022-09-22T14:24:22.212Z,22.60
2022-09-22T14:27:17.592Z,22.90
2022-09-22T14:30:04.445Z,23.70
2022-09-22T14:32:55.367Z,24.80
2022-09-22T14:35:41.551Z,24.70
2022-09-22T14:38:29.070Z,25.50
2022-09-22T14:41:26.126Z,25.80
2022-09-22T14:44:41.112Z,25.30
2022-09-22T14:47:29.540Z,24.30
2022-09-22T14:50:37.080Z,24.70
2022-09-22T14:53:32.032Z,24.90
2022-09-22T14:56:23.395Z,24.20
2022-09-22T14:59:41.176Z,23.70
2022-09-22T15:02:33.326Z,23.80
2022-09-22T15:05:29.392Z,23.70
2022-09-22T15:08:20.411Z,23.80
2022-09-22T15:11:05.884Z,23.60
2022-09-22T15:13:52.705Z,22.80
2022-09-22T15:16:41.354Z,23.00
2022-09-22T15:19:26.698Z,22.50
2022-09-22T15:22:16.923Z,22.70
2022-09-22T15:25:02.202Z,22.40
2022-09-22T15:27:53.407Z,22.90
2022-09-22T15:30:39.147Z,22.80
2022-09-22T15:33:24.651Z,23.50
2022-09-22T15:36:22.804Z,24.30
2022-09-22T15:39:20.530Z,24.40
2022-09-22T15:42:09.757Z,25.70
2022-09-22T15:44:56.857Z,27.00
2022-09-22T15:47:44.727Z,28.40
2022-09-22T15:50:30.620Z,29.50
2022-09-22T15:53:18.626Z,30.10
2022-09-22T15:56:09.200Z,30.00
2022-09-22T15:58:58.255Z,29.70
2022-09-22T16:01:45.799Z,30.00
2022-09-22T16:04:34.290Z,30.40
2022-09-22T16:07:20.547Z,31.20
2022-09-22T16:10:05.762Z,32.10
2022-09-22T16:12:51.114Z,32.80
2022-09-22T16:15:36.523Z,33.60
2022-09-22T16:18:22.274Z,34.70
2022-09-22T16:21:17.286Z,35.20
2022-09-22T16:24:08.288Z,36.00
2022-09-22T16:26:54.185Z,36.70
2022-09-22T16:29:39.492Z,37.70
2022-09-22T16:32:26.198Z,38.50
2022-09-22T16:35:12.155Z,39.20
2022-09-22T16:37:57.260Z,39.70
2022-09-22T16:40:42.838Z,40.60
2022-09-22T16:43:28.386Z,41.40
2022-09-22T16:46:27.190Z,41.80
2022-09-22T16:49:16.036Z,42.40
2022-09-22T16:52:01.597Z,43.20
2022-09-22T16:54:49.539Z,43.30
2022-09-22T16:57:34.895Z,43.80
2022-09-22T17:00:20.224Z,44.00
2022-09-22T17:03:05.636Z,44.30
2022-09-22T17:06:01.770Z,44.70
2022-09-22T17:08:52.732Z,45.40
2022-09-22T17:11:41.770Z,45.80
2022-09-22T17:14:27.899Z,46.30
2022-09-22T17:17:13.746Z,47.30
2022-09-22T17:19:59.541Z,47.10
2022-09-22T17:22:46.879Z,47.50
2022-09-22T17:25:32.231Z,48.00
2022-09-22T17:28:17.699Z,48.50
2022-09-22T17:31:06.987Z,48.80
2022-09-22T17:33:55.255Z,49.20
2022-09-22T17:36:40.875Z,49.60
2022-09-22T17:39:28.686Z,50.00
2022-09-22T17:42:15.423Z,50.50
2022-09-22T17:45:01.171Z,50.80
2022-09-22T17:48:04.999Z,51.30
2022-09-22T17:51:09.068Z,51.70
2022-09-22T17:54:16.135Z,52.10
2022-09-22T17:57:01.422Z,52.50
2022-09-22T17:59:47.363Z,52.90
2022-09-22T18:02:36.702Z,53.40
2022-09-22T18:05:26.856Z,53.80
2022-09-22T18:08:18.066Z,54.30
2022-09-22T18:11:03.815Z,54.60
2022-09-22T18:13:50.534Z,55.10
2022-09-22T18:16:36.167Z,55.90
2022-09-22T18:19:21.767Z,56.80
2022-09-22T18:22:10.815Z,56.40
2022-09-22T18:24:56.471Z,56.50
2022-09-22T18:27:42.108Z,56.50
2022-09-22T18:30:28.248Z,56.60
2022-09-22T18:33:14.200Z,56.90
2022-09-22T18:35:59.427Z,57.00
2022-09-22T18:38:45.201Z,57.30
2022-09-22T18:41:32.523Z,57.30
2022-09-22T18:44:19.259Z,57.50
2022-09-22T18:47:05.741Z,57.70
2022-09-22T18:49:54.284Z,57.90
2022-09-22T18:52:45.831Z,58.00
2022-09-22T18:55:34.789Z,58.40
2022-09-22T18:58:20.775Z,58.30
2022-09-22T19:01:06.171Z,58.50
2022-09-22T19:03:52.175Z,59.00
2022-09-22T19:06:55.811Z,59.20
2022-09-22T19:09:41.956Z,59.30
2022-09-22T19:12:27.275Z,59.40
2022-09-22T19:15:15.073Z,59.30
2022-09-22T19:18:06.216Z,59.70
2022-09-22T19:20:51.390Z,59.80
2022-09-22T19:23:41.580Z,60.00
2022-09-22T19:26:28.187Z,60.10
2022-09-22T19:29:13.591Z,60.40
2022-09-22T19:32:03.209Z,60.40
2022-09-22T19:34:52.505Z,60.70
2022-09-22T19:37:38.016Z,61.00
2022-09-22T19:40:25.233Z,60.90
2022-09-22T19:43:10.652Z,61.00
2022-09-22T19:45:56.079Z,61.40
2022-09-22T19:48:44.588Z,61.60
2022-09-22T19:51:31.759Z,61.50
2022-09-22T19:54:16.975Z,61.40
2022-09-22T19:57:02.592Z,61.60
2022-09-22T19:59:48.546Z,62.10
2022-09-22T20:02:33.612Z,62.60
2022-09-22T20:05:21.527Z,62.90
2022-09-22T20:08:15.965Z,63.00
2022-09-22T20:11:26.380Z,62.90
2022-09-22T20:14:22.750Z,63.20
2022-09-22T20:17:09.057Z,63.30
2022-09-22T20:19:55.227Z,63.80
2022-09-22T20:22:42.006Z,64.60
2022-09-22T20:25:29.939Z,64.70
2022-09-22T20:28:15.203Z,65.00
2022-09-22T20:31:01.823Z,64.70
2022-09-22T20:33:48.521Z,64.70
2022-09-22T20:36:37.071Z,65.00
2022-09-22T20:39:23.027Z,65.30
2022-09-22T20:42:08.939Z,65.70
2022-09-22T20:44:55.006Z,65.90
2022-09-22T20:47:40.427Z,66.20
2022-09-22T20:50:28.919Z,66.50
2022-09-22T20:53:14.358Z,66.90
2022-09-22T20:56:11.647Z,67.20
2022-09-22T20:58:57.056Z,67.50
2022-09-22T21:01:42.329Z,68.20
2022-09-22T21:04:29.082Z,68.00
2022-09-22T21:07:17.036Z,68.20
2022-09-22T21:10:20.704Z,68.30
2022-09-22T21:13:06.417Z,68.70
2022-09-22T21:16:03.609Z,69.10
2022-09-22T21:18:51.573Z,69.40
2022-09-22T21:21:39.547Z,69.60
2022-09-22T21:24:29.451Z,69.70
2022-09-22T21:27:15.237Z,69.90
2022-09-22T21:30:00.433Z,70.00
2022-09-22T21:32:46.304Z,70.20
2022-09-22T21:35:31.753Z,70.70
2022-09-22T21:38:17.361Z,71.00
2022-09-22T21:41:08.266Z,71.40
2022-09-22T21:43:57.367Z,71.60
2022-09-22T21:46:44.230Z,71.90
2022-09-22T21:49:29.976Z,72.30
2022-09-22T21:52:16.363Z,72.40
2022-09-22T21:55:02.022Z,72.60
2022-09-22T21:57:47.732Z,72.70
2022-09-22T22:00:51.279Z,73.00
2022-09-22T22:03:42.357Z,73.00
2022-09-22T22:06:34.465Z,73.20
2022-09-22T22:09:22.374Z,73.50
2022-09-22T22:12:09.280Z,73.50
2022-09-22T22:14:57.925Z,74.70
2022-09-22T22:17:43.618Z,74.20
2022-09-22T22:20:30.184Z,74.10
2022-09-22T22:23:15.377Z,74.10
2022-09-22T22:26:09.917Z,74.60
2022-09-22T22:28:55.055Z,74.40
2022-09-22T22:31:44.390Z,74.30
2022-09-22T22:34:30.384Z,74.50
2022-09-22T22:37:16.432Z,74.70
2022-09-22T22:40:01.783Z,74.50
2022-09-22T22:42:47.581Z,74.50
2022-09-22T22:45:32.740Z,74.70
2022-09-22T22:48:18.359Z,74.70
2022-09-22T22:51:09.066Z,74.90
2022-09-22T22:53:57.372Z,74.70
2022-09-22T22:56:45.073Z,74.80
2022-09-22T22:59:36.127Z,74.90
2022-09-22T23:02:25.539Z,74.80
2022-09-22T23:05:12.079Z,75.10
2022-09-22T23:07:57.536Z,75.10
2022-09-22T23:10:43.217Z,75.20
2022-09-22T23:13:38.116Z,75.30
2022-09-22T23:16:26.469Z,75.50
2022-09-22T23:19:14.442Z,75.80
2022-09-22T23:22:02.211Z,75.90
2022-09-22T23:24:48.864Z,75.90
2022-09-22T23:27:34.931Z,75.80
2022-09-22T23:30:20.515Z,76.00
2022-09-22T23:33:06.651Z,76.20
2022-09-22T23:35:59.763Z,76.40
2022-09-22T23:38:45.046Z,76.70
2022-09-22T23:41:31.687Z,76.80
2022-09-22T23:44:16.975Z,77.00
2022-09-22T23:47:03.001Z,76.90
2022-09-22T23:49:48.192Z,77.00
2022-09-22T23:52:33.713Z,77.80
2022-09-22T23:55:19.227Z,77.10
2022-09-22T23:58:08.076Z,77.30
